sensor_id;sensor_type;location;lat;lon;timestamp;pressure;altitude;pressure_sealevel;temperature;humidity
51460;BME280;37534;39.772;2.718;2023-05-16T00:01:21;100979.31;;;16.22;100.00
51460;BME280;37534;39.772;2.718;2023-05-16T00:03:47;100982.56;;;16.27;100.00
51460;BME280;37534;39.772;2.718;2023-05-16T00:06:12;100977.00;;;16.35;100.00
51460;BME280;37534;39.772;2.718;2023-05-16T00:08:39;100988.63;;;16.28;100.00
51460;BME280;37534;39.772;2.718;2023-05-16T00:11:05;100978.47;;;16.22;100.00
51460;BME280;37534;39.772;2.718;2023-05-16T00:13:30;100976.44;;;16.28;100.00
51460;BME280;37534;39.772;2.718;2023-05-16T00:15:56;100982.47;;;16.29;100.00
51460;BME280;37534;39.772;2.718;2023-05-16T00:18:22;100977.28;;;16.29;100.00
51460;BME280;37534;39.772;2.718;2023-05-16T00:20:48;100983.91;;;16.17;100.00
51460;BME280;37534;39.772;2.718;2023-05-16T00:23:14;100979.09;;;16.08;100.00
51460;BME280;37534;39.772;2.718;2023-05-16T00:25:41;100964.97;;;16.13;100.00
51460;BME280;37534;39.772;2.718;2023-05-16T00:28:06;100971.00;;;16.14;100.00
51460;BME280;37534;39.772;2.718;2023-05-16T00:30:33;100974.50;;;16.13;100.00
51460;BME280;37534;39.772;2.718;2023-05-16T00:32:59;100970.94;;;16.15;100.00
51460;BME280;37534;39.772;2.718;2023-05-16T00:35:24;100968.56;;;16.30;100.00
51460;BME280;37534;39.772;2.718;2023-05-16T00:37:50;100958.41;;;16.43;100.00
51460;BME280;37534;39.772;2.718;2023-05-16T00:40:15;100964.63;;;16.40;100.00
51460;BME280;37534;39.772;2.718;2023-05-16T00:42:41;100955.53;;;16.30;100.00
51460;BME280;37534;39.772;2.718;2023-05-16T00:45:08;100951.03;;;16.14;100.00
51460;BME280;37534;39.772;2.718;2023-05-16T00:47:35;100954.56;;;16.13;100.00
51460;BME280;37534;39.772;2.718;2023-05-16T00:50:03;100942.22;;;15.98;100.00
51460;BME280;37534;39.772;2.718;2023-05-16T00:52:30;100939.41;;;16.22;100.00
51460;BME280;37534;39.772;2.718;2023-05-16T00:54:57;100932.53;;;16.21;100.00
51460;BME280;37534;39.772;2.718;2023-05-16T00:57:23;100934.63;;;16.12;100.00
51460;BME280;37534;39.772;2.718;2023-05-16T00:59:49;100926.06;;;16.10;100.00
51460;BME280;37534;39.772;2.718;2023-05-16T01:02:15;100914.19;;;16.24;100.00
51460;BME280;37534;39.772;2.718;2023-05-16T01:04:42;100924.38;;;16.28;100.00
51460;BME280;37534;39.772;2.718;2023-05-16T01:07:07;100927.91;;;16.27;100.00
51460;BME280;37534;39.772;2.718;2023-05-16T01:09:33;100914.94;;;16.26;100.00
51460;BME280;37534;39.772;2.718;2023-05-16T01:15:06;100891.16;;;16.14;100.00
51460;BME280;37534;39.772;2.718;2023-05-16T01:26:17;100888.75;;;16.29;100.00
51460;BME280;37534;39.772;2.718;2023-05-16T01:28:44;100874.25;;;16.23;100.00
51460;BME280;37534;39.772;2.718;2023-05-16T01:31:11;100877.06;;;16.38;100.00
51460;BME280;37534;39.772;2.718;2023-05-16T01:33:37;100878.72;;;16.58;100.00
51460;BME280;37534;39.772;2.718;2023-05-16T01:38:58;100879.47;;;16.42;100.00
51460;BME280;37534;39.772;2.718;2023-05-16T01:44:28;100868.91;;;16.45;100.00
51460;BME280;37534;39.772;2.718;2023-05-16T01:46:58;100867.41;;;16.40;100.00
51460;BME280;37534;39.772;2.718;2023-05-16T01:49:42;100865.81;;;16.37;100.00
51460;BME280;37534;39.772;2.718;2023-05-16T01:52:26;100864.28;;;16.33;100.00
51460;BME280;37534;39.772;2.718;2023-05-16T01:54:52;100864.72;;;16.24;100.00
51460;BME280;37534;39.772;2.718;2023-05-16T01:57:25;100876.94;;;16.22;100.00
51460;BME280;37534;39.772;2.718;2023-05-16T01:59:52;100865.31;;;16.29;100.00
51460;BME280;37534;39.772;2.718;2023-05-16T02:02:18;100879.19;;;16.29;100.00
51460;BME280;37534;39.772;2.718;2023-05-16T02:04:44;100876.66;;;16.28;100.00
51460;BME280;37534;39.772;2.718;2023-05-16T02:07:10;100866.13;;;16.31;100.00
51460;BME280;37534;39.772;2.718;2023-05-16T02:09:36;100878.06;;;16.35;100.00
51460;BME280;37534;39.772;2.718;2023-05-16T02:12:01;100872.84;;;16.35;100.00
51460;BME280;37534;39.772;2.718;2023-05-16T02:14:27;100892.28;;;16.47;100.00
51460;BME280;37534;39.772;2.718;2023-05-16T02:16:53;100881.38;;;16.39;100.00
51460;BME280;37534;39.772;2.718;2023-05-16T02:19:19;100893.69;;;16.35;100.00
51460;BME280;37534;39.772;2.718;2023-05-16T02:21:45;100893.69;;;16.35;100.00
51460;BME280;37534;39.772;2.718;2023-05-16T02:24:10;100891.97;;;16.34;100.00
51460;BME280;37534;39.772;2.718;2023-05-16T02:26:36;100884.53;;;16.45;100.00
51460;BME280;37534;39.772;2.718;2023-05-16T02:29:01;100884.16;;;16.53;100.00
51460;BME280;37534;39.772;2.718;2023-05-16T02:31:31;100871.25;;;16.50;100.00
51460;BME280;37534;39.772;2.718;2023-05-16T02:33:58;100866.56;;;16.39;100.00
51460;BME280;37534;39.772;2.718;2023-05-16T02:36:24;100871.50;;;16.45;100.00
51460;BME280;37534;39.772;2.718;2023-05-16T02:38:49;100874.09;;;16.45;100.00
51460;BME280;37534;39.772;2.718;2023-05-16T02:41:15;100869.91;;;16.60;100.00
51460;BME280;37534;39.772;2.718;2023-05-16T02:43:41;100879.31;;;16.63;100.00
51460;BME280;37534;39.772;2.718;2023-05-16T02:46:30;100880.53;;;16.56;100.00
51460;BME280;37534;39.772;2.718;2023-05-16T02:48:56;100873.06;;;16.67;100.00
51460;BME280;37534;39.772;2.718;2023-05-16T02:51:26;100870.75;;;16.61;100.00
51460;BME280;37534;39.772;2.718;2023-05-16T02:53:53;100869.69;;;16.65;100.00
51460;BME280;37534;39.772;2.718;2023-05-16T02:56:21;100858.16;;;16.51;100.00
51460;BME280;37534;39.772;2.718;2023-05-16T02:58:47;100861.41;;;16.57;100.00
51460;BME280;37534;39.772;2.718;2023-05-16T03:01:14;100868.59;;;16.51;100.00
51460;BME280;37534;39.772;2.718;2023-05-16T03:03:40;100854.50;;;16.38;100.00
51460;BME280;37534;39.772;2.718;2023-05-16T03:06:06;100869.44;;;16.52;100.00
51460;BME280;37534;39.772;2.718;2023-05-16T03:08:31;100857.72;;;16.43;100.00
51460;BME280;37534;39.772;2.718;2023-05-16T03:10:57;100857.22;;;16.35;100.00
51460;BME280;37534;39.772;2.718;2023-05-16T03:13:23;100871.84;;;16.38;100.00
51460;BME280;37534;39.772;2.718;2023-05-16T03:15:49;100867.34;;;16.41;100.00
51460;BME280;37534;39.772;2.718;2023-05-16T03:18:15;100871.50;;;16.45;100.00
51460;BME280;37534;39.772;2.718;2023-05-16T03:20:40;100875.94;;;16.43;100.00
51460;BME280;37534;39.772;2.718;2023-05-16T03:23:06;100871.34;;;16.48;100.00
51460;BME280;37534;39.772;2.718;2023-05-16T03:25:35;100862.81;;;16.45;100.00
51460;BME280;37534;39.772;2.718;2023-05-16T03:28:05;100860.41;;;16.59;100.00
51460;BME280;37534;39.772;2.718;2023-05-16T03:30:32;100851.56;;;16.44;100.00
51460;BME280;37534;39.772;2.718;2023-05-16T03:32:58;100864.66;;;16.43;100.00
51460;BME280;37534;39.772;2.718;2023-05-16T03:35:23;100867.50;;;16.56;100.00
51460;BME280;37534;39.772;2.718;2023-05-16T03:37:49;100855.94;;;16.44;100.00
51460;BME280;37534;39.772;2.718;2023-05-16T03:40:15;100863.94;;;16.58;100.00
51460;BME280;37534;39.772;2.718;2023-05-16T03:42:40;100861.09;;;16.63;100.00
51460;BME280;37534;39.772;2.718;2023-05-16T03:45:06;100847.38;;;16.59;100.00
51460;BME280;37534;39.772;2.718;2023-05-16T03:47:33;100868.13;;;16.61;100.00
51460;BME280;37534;39.772;2.718;2023-05-16T03:49:58;100860.78;;;16.51;100.00
51460;BME280;37534;39.772;2.718;2023-05-16T03:52:24;100861.09;;;16.45;100.00
51460;BME280;37534;39.772;2.718;2023-05-16T03:54:49;100868.84;;;16.47;100.00
51460;BME280;37534;39.772;2.718;2023-05-16T03:57:15;100858.75;;;16.39;100.00
51460;BME280;37534;39.772;2.718;2023-05-16T03:59:40;100870.44;;;16.49;100.00
51460;BME280;37534;39.772;2.718;2023-05-16T04:02:07;100866.38;;;16.44;100.00
51460;BME280;37534;39.772;2.718;2023-05-16T04:04:35;100857.09;;;16.38;100.00
51460;BME280;37534;39.772;2.718;2023-05-16T04:07:01;100849.41;;;16.35;100.00
51460;BME280;37534;39.772;2.718;2023-05-16T04:09:27;100855.38;;;16.37;100.00
51460;BME280;37534;39.772;2.718;2023-05-16T04:11:53;100865.34;;;16.46;100.00
51460;BME280;37534;39.772;2.718;2023-05-16T04:14:21;100852.03;;;16.35;100.00
51460;BME280;37534;39.772;2.718;2023-05-16T04:16:47;100859.59;;;16.40;100.00
51460;BME280;37534;39.772;2.718;2023-05-16T04:19:12;100845.88;;;16.36;100.00
51460;BME280;37534;39.772;2.718;2023-05-16T04:21:38;100846.81;;;16.35;100.00
51460;BME280;37534;39.772;2.718;2023-05-16T04:24:04;100847.63;;;16.54;100.00
51460;BME280;37534;39.772;2.718;2023-05-16T04:26:29;100842.25;;;16.58;100.00
51460;BME280;37534;39.772;2.718;2023-05-16T04:28:56;100840.25;;;16.45;100.00
51460;BME280;37534;39.772;2.718;2023-05-16T04:31:25;100842.78;;;16.47;100.00
51460;BME280;37534;39.772;2.718;2023-05-16T04:33:50;100845.81;;;16.38;100.00
51460;BME280;37534;39.772;2.718;2023-05-16T04:36:17;100822.91;;;16.27;100.00
51460;BME280;37534;39.772;2.718;2023-05-16T04:38:42;100828.66;;;16.33;100.00
51460;BME280;37534;39.772;2.718;2023-05-16T04:41:08;100840.91;;;16.31;100.00
51460;BME280;37534;39.772;2.718;2023-05-16T04:43:33;100821.75;;;16.32;100.00
51460;BME280;37534;39.772;2.718;2023-05-16T04:46:00;100823.13;;;16.22;100.00
51460;BME280;37534;39.772;2.718;2023-05-16T04:48:25;100830.88;;;16.24;100.00
51460;BME280;37534;39.772;2.718;2023-05-16T04:50:51;100821.94;;;16.10;100.00
51460;BME280;37534;39.772;2.718;2023-05-16T04:53:16;100828.84;;;16.11;100.00
51460;BME280;37534;39.772;2.718;2023-05-16T04:55:42;100817.81;;;16.06;100.00
51460;BME280;37534;39.772;2.718;2023-05-16T04:58:08;100820.56;;;16.03;100.00
51460;BME280;37534;39.772;2.718;2023-05-16T05:00:33;100825.03;;;16.19;100.00
51460;BME280;37534;39.772;2.718;2023-05-16T05:02:59;100824.28;;;16.34;100.00
51460;BME280;37534;39.772;2.718;2023-05-16T05:05:24;100820.78;;;16.35;100.00
51460;BME280;37534;39.772;2.718;2023-05-16T05:07:50;100816.03;;;16.26;100.00
51460;BME280;37534;39.772;2.718;2023-05-16T05:10:16;100828.88;;;16.29;100.00
51460;BME280;37534;39.772;2.718;2023-05-16T05:12:42;100833.47;;;16.24;100.00
51460;BME280;37534;39.772;2.718;2023-05-16T05:15:08;100825.19;;;16.15;100.00
51460;BME280;37534;39.772;2.718;2023-05-16T05:17:33;100837.13;;;16.20;100.00
51460;BME280;37534;39.772;2.718;2023-05-16T05:19:59;100833.38;;;16.25;100.00
51460;BME280;37534;39.772;2.718;2023-05-16T05:22:24;100837.63;;;16.28;100.00
51460;BME280;37534;39.772;2.718;2023-05-16T05:24:50;100835.00;;;16.28;100.00
51460;BME280;37534;39.772;2.718;2023-05-16T05:27:16;100830.25;;;16.36;100.00
51460;BME280;37534;39.772;2.718;2023-05-16T05:29:41;100834.66;;;16.53;100.00
51460;BME280;37534;39.772;2.718;2023-05-16T05:32:07;100831.84;;;16.58;100.00
51460;BME280;37534;39.772;2.718;2023-05-16T05:34:33;100831.28;;;16.51;100.00
51460;BME280;37534;39.772;2.718;2023-05-16T05:36:58;100835.13;;;16.44;100.00
51460;BME280;37534;39.772;2.718;2023-05-16T05:39:24;100820.78;;;16.35;100.00
51460;BME280;37534;39.772;2.718;2023-05-16T05:41:50;100826.69;;;16.39;100.00
51460;BME280;37534;39.772;2.718;2023-05-16T05:44:15;100834.03;;;16.48;100.00
51460;BME280;37534;39.772;2.718;2023-05-16T05:46:41;100829.94;;;16.61;100.00
51460;BME280;37534;39.772;2.718;2023-05-16T05:49:07;100819.88;;;16.71;100.00
51460;BME280;37534;39.772;2.718;2023-05-16T05:51:33;100830.47;;;16.85;100.00
51460;BME280;37534;39.772;2.718;2023-05-16T05:54:00;100826.03;;;16.87;100.00
51460;BME280;37534;39.772;2.718;2023-05-16T05:56:25;100822.31;;;16.93;100.00
51460;BME280;37534;39.772;2.718;2023-05-16T05:58:51;100827.38;;;17.12;100.00
51460;BME280;37534;39.772;2.718;2023-05-16T06:01:17;100839.50;;;17.31;100.00
51460;BME280;37534;39.772;2.718;2023-05-16T06:03:42;100836.63;;;17.35;100.00
51460;BME280;37534;39.772;2.718;2023-05-16T06:06:08;100838.06;;;17.41;100.00
51460;BME280;37534;39.772;2.718;2023-05-16T06:08:34;100847.84;;;17.53;100.00
51460;BME280;37534;39.772;2.718;2023-05-16T06:11:00;100834.22;;;17.64;100.00
51460;BME280;37534;39.772;2.718;2023-05-16T06:13:26;100830.06;;;17.77;100.00
51460;BME280;37534;39.772;2.718;2023-05-16T06:15:52;100842.19;;;17.94;100.00
51460;BME280;37534;39.772;2.718;2023-05-16T06:18:19;100848.13;;;17.98;100.00
51460;BME280;37534;39.772;2.718;2023-05-16T06:20:44;100833.69;;;17.91;100.00
51460;BME280;37534;39.772;2.718;2023-05-16T06:23:10;100837.50;;;18.01;100.00
51460;BME280;37534;39.772;2.718;2023-05-16T06:25:36;100834.97;;;17.99;100.00
51460;BME280;37534;39.772;2.718;2023-05-16T06:28:01;100838.00;;;18.08;100.00
51460;BME280;37534;39.772;2.718;2023-05-16T06:30:27;100835.03;;;18.14;100.00
51460;BME280;37534;39.772;2.718;2023-05-16T06:32:52;100832.25;;;18.17;100.00
51460;BME280;37534;39.772;2.718;2023-05-16T06:35:18;100835.63;;;18.19;100.00
51460;BME280;37534;39.772;2.718;2023-05-16T06:37:43;100831.25;;;18.19;100.00
51460;BME280;37534;39.772;2.718;2023-05-16T06:40:09;100833.44;;;18.27;100.00
51460;BME280;37534;39.772;2.718;2023-05-16T06:42:35;100824.84;;;18.25;100.00
51460;BME280;37534;39.772;2.718;2023-05-16T06:45:01;100840.00;;;18.34;100.00
51460;BME280;37534;39.772;2.718;2023-05-16T06:47:26;100838.63;;;18.43;100.00
51460;BME280;37534;39.772;2.718;2023-05-16T06:49:52;100829.22;;;18.40;100.00
51460;BME280;37534;39.772;2.718;2023-05-16T06:52:17;100837.34;;;18.50;100.00
51460;BME280;37534;39.772;2.718;2023-05-16T06:54:43;100829.50;;;18.50;100.00
51460;BME280;37534;39.772;2.718;2023-05-16T06:57:08;100830.19;;;18.54;100.00
51460;BME280;37534;39.772;2.718;2023-05-16T06:59:34;100843.47;;;18.65;100.00
51460;BME280;37534;39.772;2.718;2023-05-16T07:02:00;100838.22;;;18.65;100.00
51460;BME280;37534;39.772;2.718;2023-05-16T07:04:26;100831.16;;;18.67;100.00
51460;BME280;37534;39.772;2.718;2023-05-16T07:06:52;100838.91;;;18.69;100.00
51460;BME280;37534;39.772;2.718;2023-05-16T07:09:18;100857.09;;;18.70;100.00
51460;BME280;37534;39.772;2.718;2023-05-16T07:11:43;100837.72;;;18.74;100.00
51460;BME280;37534;39.772;2.718;2023-05-16T07:14:09;100845.63;;;18.89;100.00
51460;BME280;37534;39.772;2.718;2023-05-16T07:16:35;100834.78;;;18.95;100.00
51460;BME280;37534;39.772;2.718;2023-05-16T07:19:00;100846.97;;;19.25;98.25
51460;BME280;37534;39.772;2.718;2023-05-16T07:21:26;100846.06;;;19.40;97.49
51460;BME280;37534;39.772;2.718;2023-05-16T07:23:52;100844.53;;;19.65;98.09
51460;BME280;37534;39.772;2.718;2023-05-16T07:26:17;100855.84;;;19.94;95.69
51460;BME280;37534;39.772;2.718;2023-05-16T07:28:43;100859.66;;;20.03;92.57
51460;BME280;37534;39.772;2.718;2023-05-16T07:31:08;100862.63;;;20.11;93.88
51460;BME280;37534;39.772;2.718;2023-05-16T07:33:34;100855.38;;;20.29;93.31
51460;BME280;37534;39.772;2.718;2023-05-16T07:35:59;100871.75;;;20.32;93.18
51460;BME280;37534;39.772;2.718;2023-05-16T07:38:25;100861.94;;;20.22;93.64
51460;BME280;37534;39.772;2.718;2023-05-16T07:40:51;100866.91;;;20.39;93.72
51460;BME280;37534;39.772;2.718;2023-05-16T07:43:17;100865.75;;;20.58;92.36
51460;BME280;37534;39.772;2.718;2023-05-16T07:45:42;100870.63;;;20.77;90.49
51460;BME280;37534;39.772;2.718;2023-05-16T07:48:08;100865.63;;;20.86;87.82
51460;BME280;37534;39.772;2.718;2023-05-16T07:50:34;100868.97;;;20.88;87.75
51460;BME280;37534;39.772;2.718;2023-05-16T07:53:02;100870.38;;;21.07;84.94
51460;BME280;37534;39.772;2.718;2023-05-16T07:55:28;100876.91;;;20.74;87.47
51460;BME280;37534;39.772;2.718;2023-05-16T07:57:54;100879.91;;;21.08;89.45
51460;BME280;37534;39.772;2.718;2023-05-16T08:00:19;100883.78;;;21.28;88.70
51460;BME280;37534;39.772;2.718;2023-05-16T08:02:45;100885.78;;;21.24;88.29
51460;BME280;37534;39.772;2.718;2023-05-16T08:05:11;100880.44;;;21.13;88.10
51460;BME280;37534;39.772;2.718;2023-05-16T08:07:37;100879.28;;;21.04;88.20
51460;BME280;37534;39.772;2.718;2023-05-16T08:10:02;100875.28;;;21.12;87.93
51460;BME280;37534;39.772;2.718;2023-05-16T08:12:28;100887.25;;;21.03;88.46
51460;BME280;37534;39.772;2.718;2023-05-16T08:14:55;100866.53;;;20.85;88.93
51460;BME280;37534;39.772;2.718;2023-05-16T08:17:21;100886.59;;;20.86;89.39
51460;BME280;37534;39.772;2.718;2023-05-16T08:19:46;100884.72;;;20.88;89.05
51460;BME280;37534;39.772;2.718;2023-05-16T08:22:12;100872.84;;;20.83;89.27
51460;BME280;37534;39.772;2.718;2023-05-16T08:24:37;100885.75;;;20.86;88.40
51460;BME280;37534;39.772;2.718;2023-05-16T08:27:03;100881.75;;;20.80;88.57
51460;BME280;37534;39.772;2.718;2023-05-16T08:29:29;100896.34;;;20.84;88.65
51460;BME280;37534;39.772;2.718;2023-05-16T08:31:55;100882.16;;;20.74;89.10
51460;BME280;37534;39.772;2.718;2023-05-16T08:34:21;100903.78;;;20.78;88.75
51460;BME280;37534;39.772;2.718;2023-05-16T08:36:47;100907.38;;;20.62;89.68
51460;BME280;37534;39.772;2.718;2023-05-16T08:39:13;100908.91;;;20.66;89.63
51460;BME280;37534;39.772;2.718;2023-05-16T08:41:39;100911.66;;;20.78;88.76
51460;BME280;37534;39.772;2.718;2023-05-16T08:44:05;100906.13;;;21.08;87.96
51460;BME280;37534;39.772;2.718;2023-05-16T08:46:32;100920.66;;;21.39;85.15
51460;BME280;37534;39.772;2.718;2023-05-16T08:48:59;100920.78;;;21.51;83.92
51460;BME280;37534;39.772;2.718;2023-05-16T08:51:27;100927.28;;;21.58;82.60
51460;BME280;37534;39.772;2.718;2023-05-16T08:54:01;100922.75;;;21.34;83.51
51460;BME280;37534;39.772;2.718;2023-05-16T08:56:27;100921.44;;;21.01;85.16
51460;BME280;37534;39.772;2.718;2023-05-16T08:58:54;100925.41;;;20.94;84.90
51460;BME280;37534;39.772;2.718;2023-05-16T09:01:22;100935.81;;;20.96;83.71
51460;BME280;37534;39.772;2.718;2023-05-16T09:03:51;100937.13;;;20.76;85.33
51460;BME280;37534;39.772;2.718;2023-05-16T09:06:17;100931.38;;;20.56;86.49
51460;BME280;37534;39.772;2.718;2023-05-16T09:08:43;100931.56;;;20.53;87.29
51460;BME280;37534;39.772;2.718;2023-05-16T09:11:09;100938.22;;;20.44;88.11
51460;BME280;37534;39.772;2.718;2023-05-16T09:13:34;100941.16;;;20.40;88.54
51460;BME280;37534;39.772;2.718;2023-05-16T09:16:16;100946.78;;;20.33;88.64
51460;BME280;37534;39.772;2.718;2023-05-16T09:18:43;100954.06;;;20.28;88.13
51460;BME280;37534;39.772;2.718;2023-05-16T09:21:10;100942.13;;;20.24;88.28
51460;BME280;37534;39.772;2.718;2023-05-16T09:23:37;100953.53;;;20.23;87.68
51460;BME280;37534;39.772;2.718;2023-05-16T09:26:04;100962.69;;;20.30;88.48
51460;BME280;37534;39.772;2.718;2023-05-16T09:28:33;100946.03;;;20.31;86.96
51460;BME280;37534;39.772;2.718;2023-05-16T09:30:58;100953.03;;;20.45;87.45
51460;BME280;37534;39.772;2.718;2023-05-16T09:33:28;100951.56;;;20.68;86.92
51460;BME280;37534;39.772;2.718;2023-05-16T09:35:58;100961.81;;;20.86;86.34
51460;BME280;37534;39.772;2.718;2023-05-16T09:38:27;100956.06;;;20.94;84.30
51460;BME280;37534;39.772;2.718;2023-05-16T09:40:53;100956.88;;;20.94;82.19
51460;BME280;37534;39.772;2.718;2023-05-16T09:43:24;100965.22;;;21.14;82.38
51460;BME280;37534;39.772;2.718;2023-05-16T09:45:50;100952.44;;;21.22;80.25
51460;BME280;37534;39.772;2.718;2023-05-16T09:48:17;100952.00;;;21.28;80.76
51460;BME280;37534;39.772;2.718;2023-05-16T09:51:04;100946.09;;;21.52;78.73
51460;BME280;37534;39.772;2.718;2023-05-16T09:53:31;100954.91;;;21.76;77.62
51460;BME280;37534;39.772;2.718;2023-05-16T09:56:09;100962.41;;;22.19;74.83
51460;BME280;37534;39.772;2.718;2023-05-16T09:58:37;100963.97;;;22.35;74.87
51460;BME280;37534;39.772;2.718;2023-05-16T10:01:04;100946.63;;;22.19;72.35
51460;BME280;37534;39.772;2.718;2023-05-16T10:03:32;100955.66;;;22.65;73.39
51460;BME280;37534;39.772;2.718;2023-05-16T10:05:58;100961.66;;;23.03;71.76
51460;BME280;37534;39.772;2.718;2023-05-16T10:08:25;100955.81;;;23.57;68.93
51460;BME280;37534;39.772;2.718;2023-05-16T10:10:53;100962.34;;;23.87;64.73
51460;BME280;37534;39.772;2.718;2023-05-16T10:13:27;100961.22;;;24.12;63.62
51460;BME280;37534;39.772;2.718;2023-05-16T10:15:59;100961.84;;;24.04;63.99
51460;BME280;37534;39.772;2.718;2023-05-16T10:18:30;100960.84;;;24.28;62.38
51460;BME280;37534;39.772;2.718;2023-05-16T10:21:00;100966.19;;;24.49;60.44
51460;BME280;37534;39.772;2.718;2023-05-16T10:23:27;100951.78;;;24.09;61.12
51460;BME280;37534;39.772;2.718;2023-05-16T10:25:53;100949.56;;;24.37;61.30
51460;BME280;37534;39.772;2.718;2023-05-16T10:28:20;100958.59;;;24.12;61.82
51460;BME280;37534;39.772;2.718;2023-05-16T10:30:46;100939.84;;;23.83;60.35
51460;BME280;37534;39.772;2.718;2023-05-16T10:33:14;100959.44;;;24.24;61.67
51460;BME280;37534;39.772;2.718;2023-05-16T10:35:40;100950.63;;;24.46;61.10
51460;BME280;37534;39.772;2.718;2023-05-16T10:38:10;100944.09;;;24.18;60.08
51460;BME280;37534;39.772;2.718;2023-05-16T10:40:37;100943.75;;;23.77;62.06
51460;BME280;37534;39.772;2.718;2023-05-16T10:43:04;100938.34;;;23.67;63.73
51460;BME280;37534;39.772;2.718;2023-05-16T10:45:31;100943.88;;;23.98;62.86
51460;BME280;37534;39.772;2.718;2023-05-16T10:48:02;100949.03;;;24.66;60.88
51460;BME280;37534;39.772;2.718;2023-05-16T10:50:38;100941.91;;;24.78;57.29
51460;BME280;37534;39.772;2.718;2023-05-16T10:53:14;100942.19;;;25.17;58.38
51460;BME280;37534;39.772;2.718;2023-05-16T10:56:04;100935.78;;;25.31;56.25
51460;BME280;37534;39.772;2.718;2023-05-16T11:17:11;100910.94;;;25.74;52.54
51460;BME280;37534;39.772;2.718;2023-05-16T11:19:45;100894.31;;;25.52;53.50
51460;BME280;37534;39.772;2.718;2023-05-16T11:22:31;100907.97;;;25.27;52.91
51460;BME280;37534;39.772;2.718;2023-05-16T11:25:07;100903.31;;;25.71;53.61
51460;BME280;37534;39.772;2.718;2023-05-16T11:27:46;100898.16;;;26.20;52.23
51460;BME280;37534;39.772;2.718;2023-05-16T11:30:13;100893.16;;;26.46;51.59
51460;BME280;37534;39.772;2.718;2023-05-16T11:32:41;100884.94;;;26.10;50.17
51460;BME280;37534;39.772;2.718;2023-05-16T11:35:09;100884.13;;;26.39;51.50
51460;BME280;37534;39.772;2.718;2023-05-16T11:37:35;100873.94;;;26.14;49.33
51460;BME280;37534;39.772;2.718;2023-05-16T11:40:03;100863.34;;;26.14;50.25
51460;BME280;37534;39.772;2.718;2023-05-16T11:42:39;100865.03;;;26.15;49.09
51460;BME280;37534;39.772;2.718;2023-05-16T11:45:09;100853.84;;;25.92;50.42
51460;BME280;37534;39.772;2.718;2023-05-16T11:47:40;100857.94;;;26.16;50.55
51460;BME280;37534;39.772;2.718;2023-05-16T11:50:14;100848.75;;;26.20;50.57
51460;BME280;37534;39.772;2.718;2023-05-16T11:52:43;100862.25;;;26.17;49.55
51460;BME280;37534;39.772;2.718;2023-05-16T11:55:09;100856.31;;;25.84;51.24
51460;BME280;37534;39.772;2.718;2023-05-16T11:57:39;100867.69;;;25.75;52.41
51460;BME280;37534;39.772;2.718;2023-05-16T12:00:14;100862.16;;;25.78;52.23
51460;BME280;37534;39.772;2.718;2023-05-16T12:02:41;100876.63;;;25.43;53.13
51460;BME280;37534;39.772;2.718;2023-05-16T12:05:08;100874.50;;;25.37;53.93
51460;BME280;37534;39.772;2.718;2023-05-16T12:07:37;100883.75;;;25.00;54.30
51460;BME280;37534;39.772;2.718;2023-05-16T12:10:06;100904.34;;;25.28;54.68
51460;BME280;37534;39.772;2.718;2023-05-16T12:12:33;100900.25;;;25.23;52.94
51460;BME280;37534;39.772;2.718;2023-05-16T12:15:03;100910.06;;;24.91;54.40
51460;BME280;37534;39.772;2.718;2023-05-16T12:17:31;100917.81;;;25.25;54.19
51460;BME280;37534;39.772;2.718;2023-05-16T12:19:58;100915.59;;;25.30;53.81
51460;BME280;37534;39.772;2.718;2023-05-16T12:22:24;100927.28;;;25.27;54.17
51460;BME280;37534;39.772;2.718;2023-05-16T12:24:50;100930.25;;;25.34;52.50
51460;BME280;37534;39.772;2.718;2023-05-16T12:27:24;100937.28;;;24.70;54.03
51460;BME280;37534;39.772;2.718;2023-05-16T12:29:49;100927.81;;;24.89;54.92
51460;BME280;37534;39.772;2.718;2023-05-16T12:32:19;100931.44;;;25.30;52.78
51460;BME280;37534;39.772;2.718;2023-05-16T12:34:49;100940.13;;;25.20;52.84
51460;BME280;37534;39.772;2.718;2023-05-16T12:37:20;100935.53;;;25.34;52.40
51460;BME280;37534;39.772;2.718;2023-05-16T12:39:45;100930.09;;;25.14;53.00
51460;BME280;37534;39.772;2.718;2023-05-16T12:42:13;100942.63;;;24.36;56.02
51460;BME280;37534;39.772;2.718;2023-05-16T12:44:39;100941.59;;;24.16;60.00
51460;BME280;37534;39.772;2.718;2023-05-16T12:47:12;100949.13;;;24.21;61.93
51460;BME280;37534;39.772;2.718;2023-05-16T12:49:45;100942.91;;;24.10;61.37
51460;BME280;37534;39.772;2.718;2023-05-16T12:52:17;100959.44;;;24.01;61.76
51460;BME280;37534;39.772;2.718;2023-05-16T12:54:44;100953.06;;;23.59;62.27
51460;BME280;37534;39.772;2.718;2023-05-16T12:57:10;100957.47;;;23.35;63.12
51460;BME280;37534;39.772;2.718;2023-05-16T12:59:36;100950.28;;;23.38;64.37
51460;BME280;37534;39.772;2.718;2023-05-16T13:02:02;100961.28;;;23.31;64.72
51460;BME280;37534;39.772;2.718;2023-05-16T13:04:28;100958.44;;;23.46;64.38
51460;BME280;37534;39.772;2.718;2023-05-16T13:06:54;100948.41;;;23.62;64.10
51460;BME280;37534;39.772;2.718;2023-05-16T13:09:20;100964.75;;;23.90;62.08
51460;BME280;37534;39.772;2.718;2023-05-16T13:11:46;100976.66;;;24.28;61.61
51460;BME280;37534;39.772;2.718;2023-05-16T13:14:11;100968.25;;;24.45;58.90
51460;BME280;37534;39.772;2.718;2023-05-16T13:16:37;100968.38;;;24.44;59.75
51460;BME280;37534;39.772;2.718;2023-05-16T13:19:03;100970.81;;;24.79;57.85
51460;BME280;37534;39.772;2.718;2023-05-16T13:21:29;100962.34;;;24.97;58.17